Time;durP1;ratioP1;P1;durP2;ratioP2;P2;SDS_P1;SDS_P2;PMS_P1;PMS_P2;Temp;Humidity;BMP_temperature;BMP_pressure;BME280_temperature;BME280_humidity;BME280_pressure;Samples;Min_cycle;Max_cycle;Signal;HPM_P1;HPM_P2
2023/08/16 00:13:21;;;;;;;3.28;2.72;;;16.70;99.90;;;;;;5038827;28;20055;-38
2023/08/16 00:15:47;;;;;;;3.45;2.60;;;16.60;99.90;;;;;;5065541;28;20041;-38
2023/08/16 00:18:12;;;;;;;5.05;2.25;;;16.60;99.90;;;;;;5072346;28;20389;-39
2023/08/16 00:20:38;;;;;;;3.63;2.47;;;16.60;99.90;;;;;;5074250;28;20388;-40
2023/08/16 00:23:04;;;;;;;3.40;2.78;;;16.60;99.90;;;;;;5060353;28;20508;-39
2023/08/16 00:25:29;;;;;;;5.05;2.53;;;16.50;99.90;;;;;;5061541;28;20036;-40
2023/08/16 00:27:55;;;;;;;5.68;2.60;;;16.50;99.90;;;;;;5074153;28;20512;-40
2023/08/16 00:30:21;;;;;;;3.92;2.38;;;16.50;99.90;;;;;;5074323;28;20439;-40
2023/08/16 00:32:46;;;;;;;4.75;2.50;;;16.40;99.90;;;;;;5074021;28;20477;-39
2023/08/16 00:35:12;;;;;;;6.05;3.03;;;16.40;99.90;;;;;;5060845;28;20059;-39
2023/08/16 00:37:38;;;;;;;5.22;2.00;;;16.30;99.90;;;;;;5073928;28;20388;-39
2023/08/16 00:40:04;;;;;;;5.55;2.20;;;16.30;99.90;;;;;;5073886;28;20024;-38
2023/08/16 00:42:29;;;;;;;6.00;3.00;;;16.30;99.90;;;;;;5073171;28;20044;-40
2023/08/16 00:44:55;;;;;;;2.90;2.15;;;16.20;99.90;;;;;;5073834;28;20388;-42
2023/08/16 00:47:21;;;;;;;2.40;1.73;;;16.30;99.90;;;;;;5073750;28;20496;-39
2023/08/16 00:49:47;;;;;;;4.82;2.35;;;16.20;99.90;;;;;;5073632;28;20107;-39
2023/08/16 00:52:12;;;;;;;2.75;2.20;;;16.30;99.90;;;;;;5073634;28;20492;-38
2023/08/16 00:54:38;;;;;;;3.80;2.53;;;16.20;99.90;;;;;;5073744;28;20491;-39
2023/08/16 00:57:04;;;;;;;3.38;2.45;;;16.20;99.90;;;;;;5073536;28;20031;-38
2023/08/16 00:59:30;;;;;;;4.40;2.05;;;16.20;99.90;;;;;;5072668;28;20024;-38
2023/08/16 01:01:55;;;;;;;5.20;2.80;;;16.10;99.90;;;;;;5071043;28;20389;-41
2023/08/16 01:04:21;;;;;;;3.20;2.28;;;16.10;99.90;;;;;;5072862;28;20024;-45
2023/08/16 01:06:48;;;;;;;2.75;2.40;;;16.10;99.90;;;;;;5072300;28;20040;-41
2023/08/16 01:09:13;;;;;;;5.47;2.45;;;16.10;99.90;;;;;;5073362;28;20137;-43
2023/08/16 01:11:47;;;;;;;4.85;2.55;;;16.10;99.90;;;;;;5073202;28;20128;-51
2023/08/16 01:14:36;;;;;;;7.65;2.63;;;16.10;99.90;;;;;;5073036;28;20044;-53
2023/08/16 01:17:04;;;;;;;4.95;2.80;;;16.10;99.90;;;;;;5061039;28;20033;-40
2023/08/16 01:19:33;;;;;;;4.68;3.20;;;16.10;99.90;;;;;;5063032;28;20029;-41
2023/08/16 01:22:25;;;;;;;8.93;2.88;;;16.10;99.90;;;;;;5073161;28;20033;-58
2023/08/16 01:25:23;;;;;;;3.22;2.35;;;16.20;99.90;;;;;;5072946;28;20024;-39
2023/08/16 01:27:51;;;;;;;6.65;2.90;;;16.10;99.90;;;;;;5057942;28;20115;-39
2023/08/16 01:30:20;;;;;;;4.40;2.42;;;16.10;99.90;;;;;;5073249;28;20481;-37
2023/08/16 01:32:47;;;;;;;7.63;2.70;;;16.10;99.90;;;;;;5071578;28;20405;-38
2023/08/16 01:35:13;;;;;;;6.87;2.90;;;16.10;99.90;;;;;;5053130;28;20477;-39
2023/08/16 01:37:40;;;;;;;2.55;2.35;;;16.20;99.90;;;;;;5059761;28;20048;-38
2023/08/16 01:40:08;;;;;;;3.22;1.95;;;16.10;99.90;;;;;;5072917;28;20038;-54
2023/08/16 01:42:39;;;;;;;4.65;2.42;;;16.10;99.90;;;;;;5072810;28;20452;-38
2023/08/16 01:45:07;;;;;;;3.22;2.10;;;16.10;99.90;;;;;;5072914;28;20103;-39
2023/08/16 01:47:33;;;;;;;7.18;2.80;;;16.00;99.90;;;;;;5073039;28;20099;-39
2023/08/16 01:50:00;;;;;;;6.35;2.47;;;16.00;99.90;;;;;;5072200;28;20040;-38
2023/08/16 01:52:27;;;;;;;2.88;2.25;;;16.00;99.90;;;;;;5072780;28;20035;-38
2023/08/16 01:54:53;;;;;;;3.53;2.15;;;15.90;99.90;;;;;;5072118;28;20029;-42
2023/08/16 01:57:19;;;;;;;8.68;2.40;;;15.90;99.90;;;;;;5052659;28;20551;-38
2023/08/16 07:56:04;;;;;;;2.75;1.20;;;20.70;99.90;;;;;;5070665;28;20516;-52
2023/08/16 07:58:30;;;;;;;3.97;1.00;;;20.80;99.90;;;;;;5074702;28;20032;-50
2023/08/16 08:00:55;;;;;;;3.28;1.25;;;20.90;99.90;;;;;;5074749;28;20099;-49
2023/08/16 08:03:22;;;;;;;2.97;0.90;;;21.20;99.90;;;;;;5074560;28;20031;-55
2023/08/16 08:05:48;;;;;;;4.35;1.05;;;21.40;99.90;;;;;;5074580;28;20370;-47
2023/08/16 08:08:14;;;;;;;3.22;0.90;;;21.30;99.90;;;;;;5074837;28;20078;-50
2023/08/16 08:10:46;;;;;;;4.32;1.25;;;21.30;99.90;;;;;;5074427;28;20094;-51
2023/08/16 08:13:11;;;;;;;2.08;1.67;;;21.40;99.90;;;;;;5074422;28;20123;-49
2023/08/16 08:15:37;;;;;;;1.60;0.82;;;21.60;99.90;;;;;;5074094;28;20556;-51
2023/08/16 08:18:03;;;;;;;4.50;0.93;;;21.80;99.90;;;;;;5074360;28;20024;-50
2023/08/16 08:20:29;;;;;;;1.80;0.80;;;22.00;99.90;;;;;;5074346;28;20028;-51
2023/08/16 08:22:54;;;;;;;3.10;0.57;;;22.20;99.90;;;;;;5074577;28;20021;-51
2023/08/16 08:25:20;;;;;;;1.75;0.93;;;22.20;99.90;;;;;;5074150;28;20543;-51
2023/08/16 08:27:46;;;;;;;3.42;0.77;;;22.30;99.90;;;;;;5056227;28;20024;-49
2023/08/16 08:30:12;;;;;;;5.55;0.88;;;22.40;99.90;;;;;;5074264;28;20074;-48
2023/08/16 08:32:37;;;;;;;0.80;0.60;;;22.40;99.90;;;;;;5074039;28;20492;-55
2023/08/16 08:35:03;;;;;;;5.93;1.23;;;22.50;99.90;;;;;;5073820;28;20032;-51
2023/08/16 08:37:29;;;;;;;3.35;0.77;;;22.80;99.90;;;;;;5073881;28;20108;-51
2023/08/16 08:39:55;;;;;;;0.55;0.50;;;23.00;99.90;;;;;;5073897;28;20474;-53
2023/08/16 08:42:21;;;;;;;2.42;0.98;;;23.10;99.90;;;;;;5073748;28;20510;-53
2023/08/16 08:44:47;;;;;;;2.38;0.80;;;23.10;99.90;;;;;;5055861;28;20017;-53
2023/08/16 08:47:13;;;;;;;0.93;0.52;;;23.10;99.90;;;;;;5073696;28;20103;-50
2023/08/16 08:49:39;;;;;;;0.93;0.70;;;23.20;99.90;;;;;;5073759;28;20050;-52
2023/08/16 08:52:05;;;;;;;0.57;0.52;;;23.60;99.90;;;;;;5073719;28;20455;-52
2023/08/16 08:54:31;;;;;;;1.95;0.73;;;23.70;99.90;;;;;;5073657;28;20509;-52
2023/08/16 08:57:01;;;;;;;2.08;0.40;;;23.60;99.90;;;;;;5073489;28;20056;-52
2023/08/16 08:59:33;;;;;;;2.97;0.50;;;23.80;99.90;;;;;;5073798;28;20090;-50
2023/08/16 09:01:59;;;;;;;0.75;0.50;;;24.00;99.90;;;;;;5073305;28;20043;-53
2023/08/16 09:04:25;;;;;;;2.00;0.85;;;24.00;99.90;;;;;;5073356;28;20029;-53
2023/08/16 09:06:52;;;;;;;0.75;0.75;;;24.10;99.90;;;;;;5073374;28;20456;-47
2023/08/16 09:09:18;;;;;;;10.35;0.70;;;24.20;99.90;;;;;;5073345;28;20393;-51
2023/08/16 09:11:43;;;;;;;4.35;1.17;;;24.40;99.90;;;;;;5073311;28;20481;-52
2023/08/16 09:14:09;;;;;;;1.30;0.55;;;24.60;99.90;;;;;;5073601;28;20026;-51
2023/08/16 09:16:35;;;;;;;2.55;0.80;;;25.20;99.90;;;;;;5073406;28;20025;-51
2023/08/16 09:19:00;;;;;;;0.82;0.68;;;25.30;99.90;;;;;;5073279;28;20025;-52
2023/08/16 09:21:28;;;;;;;1.70;0.77;;;25.40;99.90;;;;;;5073100;28;20021;-51
2023/08/16 09:23:59;;;;;;;2.78;0.70;;;25.70;99.90;;;;;;5055097;28;20594;-53
2023/08/16 09:26:27;;;;;;;3.40;0.50;;;26.20;99.90;;;;;;5073309;28;20024;-52
2023/08/16 09:29:00;;;;;;;1.25;0.90;;;26.70;99.90;;;;;;5072791;28;20499;-53
2023/08/16 09:31:36;;;;;;;1.23;0.32;;;27.20;99.80;;;;;;5073012;28;20024;-52
2023/08/16 09:34:02;;;;;;;0.93;0.40;;;27.70;99.20;;;;;;5073283;28;20491;-50
2023/08/16 09:36:29;;;;;;;0.80;0.50;;;28.00;98.70;;;;;;5073143;28;20029;-52
2023/08/16 09:39:05;;;;;;;0.47;0.47;;;27.90;99.10;;;;;;5072953;28;20381;-52
2023/08/16 09:41:31;;;;;;;1.50;0.73;;;27.50;99.40;;;;;;5072709;28;20032;-52
2023/08/16 09:44:04;;;;;;;1.80;0.50;;;27.20;99.40;;;;;;5072892;28;20501;-51
2023/08/16 09:46:31;;;;;;;0.38;0.38;;;26.90;99.60;;;;;;5073032;28;20480;-52
2023/08/16 09:49:07;;;;;;;0.85;0.80;;;27.00;99.90;;;;;;5073109;28;20114;-52
2023/08/16 09:51:37;;;;;;;1.00;0.60;;;26.90;98.60;;;;;;5072809;28;20031;-51
2023/08/16 09:54:14;;;;;;;1.20;0.60;;;26.40;99.60;;;;;;5070308;28;20036;-46
2023/08/16 09:56:42;;;;;;;1.20;0.40;;;26.40;99.90;;;;;;5073009;28;20249;-50
2023/08/16 09:59:08;;;;;;;0.80;0.55;;;26.70;98.90;;;;;;5072585;28;20038;-50
2023/08/16 10:01:37;;;;;;;3.40;0.90;;;26.90;99.10;;;;;;5072699;28;20028;-48
2023/08/16 10:04:04;;;;;;;3.17;0.70;;;26.80;99.60;;;;;;5072618;28;20274;-46
2023/08/16 10:06:33;;;;;;;0.63;0.63;;;26.40;99.90;;;;;;5072939;28;20035;-52
2023/08/16 10:09:02;;;;;;;2.72;0.45;;;26.30;99.90;;;;;;5072474;28;20041;-50
2023/08/16 10:11:28;;;;;;;6.47;0.88;;;26.40;99.60;;;;;;5054637;28;20108;-50
2023/08/16 10:13:54;;;;;;;0.77;0.57;;;26.30;99.60;;;;;;5072565;28;20052;-48
2023/08/16 10:16:22;;;;;;;3.35;0.70;;;26.10;99.90;;;;;;5063673;28;20037;-50
2023/08/16 10:18:52;;;;;;;0.30;0.30;;;25.60;99.90;;;;;;5052382;28;20021;-50
2023/08/16 10:21:19;;;;;;;2.10;0.60;;;25.40;99.90;;;;;;5052793;28;20467;-49
2023/08/16 10:23:47;;;;;;;0.57;0.50;;;25.40;99.90;;;;;;5052427;28;20064;-49
2023/08/16 10:26:15;;;;;;;0.70;0.43;;;25.20;99.90;;;;;;5061381;28;20025;-48
2023/08/16 10:28:47;;;;;;;1.70;0.60;;;25.00;99.90;;;;;;5070930;28;20055;-51
2023/08/16 10:31:17;;;;;;;1.35;0.60;;;25.10;99.90;;;;;;5072260;28;20028;-49
2023/08/16 10:33:47;;;;;;;2.17;0.40;;;25.10;99.90;;;;;;5072367;28;20542;-50
2023/08/16 10:36:13;;;;;;;2.55;0.57;;;25.10;99.90;;;;;;5067847;28;20033;-48
2023/08/16 10:38:44;;;;;;;3.20;0.73;;;25.20;99.90;;;;;;5072396;28;20024;-49
2023/08/16 10:41:13;;;;;;;1.00;0.68;;;25.60;99.90;;;;;;5075550;28;20039;-53
2023/08/16 10:43:46;;;;;;;5.47;1.60;;;25.70;99.90;;;;;;5075842;28;20078;-50
2023/08/16 10:46:12;;;;;;;0.40;0.40;;;25.70;99.90;;;;;;5076032;28;20028;-48
2023/08/16 10:48:38;;;;;;;0.80;0.68;;;25.40;99.90;;;;;;5075939;28;20094;-50
2023/08/16 10:51:07;;;;;;;6.05;1.52;;;25.40;99.90;;;;;;5075876;28;20060;-52
2023/08/16 10:53:35;;;;;;;0.40;0.40;;;25.50;99.90;;;;;;5075749;28;20428;-51
2023/08/16 10:56:05;;;;;;;1.10;0.63;;;25.40;99.90;;;;;;5074152;28;20090;-52
2023/08/16 10:58:42;;;;;;;0.70;0.70;;;25.50;99.90;;;;;;5074180;28;20095;-47
2023/08/16 11:01:08;;;;;;;3.10;0.60;;;25.80;99.90;;;;;;5055033;28;20025;-52
2023/08/16 11:03:34;;;;;;;0.60;0.60;;;25.60;99.90;;;;;;5055705;28;20504;-52
2023/08/16 11:06:06;;;;;;;1.23;0.67;;;25.50;99.90;;;;;;5055690;28;20048;-71
2023/08/16 11:08:32;;;;;;;0.77;0.60;;;25.40;99.90;;;;;;5037774;28;20040;-59
2023/08/16 11:11:01;;;;;;;1.52;0.70;;;25.40;99.90;;;;;;5037828;28;20486;-48
2023/08/16 11:13:28;;;;;;;0.55;0.40;;;25.40;99.90;;;;;;5055802;28;20508;-55
2023/08/16 11:15:54;;;;;;;3.60;1.08;;;25.40;99.90;;;;;;5055408;28;20033;-50
2023/08/16 11:18:29;;;;;;;0.98;0.60;;;25.30;99.90;;;;;;5055745;28;20025;-53
2023/08/16 11:20:59;;;;;;;1.42;0.60;;;25.40;99.90;;;;;;5055668;28;20033;-51
2023/08/16 11:23:30;;;;;;;2.28;0.80;;;25.30;99.90;;;;;;5055321;28;20029;-52
2023/08/16 11:26:00;;;;;;;1.75;0.50;;;25.40;99.90;;;;;;5055174;28;20102;-48
2023/08/16 11:28:27;;;;;;;0.88;0.40;;;25.60;99.90;;;;;;5055519;28;20066;-49
2023/08/16 11:31:03;;;;;;;0.40;0.40;;;25.60;99.90;;;;;;5055256;28;20082;-47
2023/08/16 11:33:37;;;;;;;1.38;0.70;;;25.60;99.90;;;;;;5055422;28;20104;-51
2023/08/16 11:36:05;;;;;;;3.03;0.50;;;25.70;99.90;;;;;;5055016;28;20064;-51
2023/08/16 11:38:32;;;;;;;1.20;0.40;;;25.60;99.80;;;;;;5054894;28;20485;-50
2023/08/16 11:40:58;;;;;;;1.02;0.47;;;25.60;99.90;;;;;;5037112;28;20032;-52
2023/08/16 11:43:31;;;;;;;5.50;0.47;;;25.50;99.90;;;;;;5070781;28;20029;-50
2023/08/16 11:45:58;;;;;;;2.00;0.60;;;25.40;99.90;;;;;;5074948;28;20037;-51
2023/08/16 11:48:25;;;;;;;3.80;0.83;;;25.10;99.90;;;;;;5074937;28;20028;-50
2023/08/16 11:50:51;;;;;;;1.45;0.60;;;24.80;99.90;;;;;;5056247;28;20028;-49
2023/08/16 11:53:19;;;;;;;2.10;0.93;;;24.90;99.90;;;;;;5074834;28;20366;-52
2023/08/16 11:55:57;;;;;;;;;;;24.90;99.90;;;;;;5075011;28;20500;-46
2023/08/16 11:58:23;;;;;;;2.10;1.08;;;25.10;99.90;;;;;;5074763;28;19932;-51
2023/08/16 12:00:49;;;;;;;1.08;0.98;;;25.20;99.90;;;;;;5074792;28;20086;-52
2023/08/16 12:03:17;;;;;;;1.00;0.57;;;25.40;99.90;;;;;;5074720;28;20427;-50
2023/08/16 12:05:49;;;;;;;1.45;0.68;;;25.50;99.90;;;;;;5074865;28;20549;-53
2023/08/16 12:08:22;;;;;;;0.95;0.60;;;25.80;99.90;;;;;;5073994;28;20420;-52
2023/08/16 12:10:53;;;;;;;1.42;0.70;;;25.80;99.80;;;;;;5073728;28;20037;-52
2023/08/16 12:13:20;;;;;;;1.33;0.55;;;26.00;99.90;;;;;;5074407;28;20103;-51
2023/08/16 12:15:46;;;;;;;0.52;0.52;;;26.10;99.90;;;;;;5074412;28;20060;-52
2023/08/16 12:18:14;;;;;;;2.83;0.80;;;26.00;99.90;;;;;;5074352;28;20086;-51
2023/08/16 12:20:40;;;;;;;0.93;0.70;;;26.00;99.90;;;;;;5074477;28;20275;-53
2023/08/16 12:23:07;;;;;;;0.60;0.60;;;25.80;99.90;;;;;;5056876;28;20027;-50
2023/08/16 12:25:34;;;;;;;0.70;0.50;;;25.80;99.90;;;;;;5074182;28;20063;-53
2023/08/16 12:28:00;;;;;;;0.73;0.68;;;25.80;99.90;;;;;;5074160;28;20028;-49
2023/08/16 12:30:28;;;;;;;0.63;0.63;;;25.80;99.90;;;;;;5074103;28;20082;-52
2023/08/16 12:32:54;;;;;;;5.18;0.80;;;25.60;99.90;;;;;;5074324;28;20032;-53
2023/08/16 12:35:20;;;;;;;0.70;0.70;;;25.60;99.90;;;;;;5073967;28;20481;-58
2023/08/16 12:37:45;;;;;;;1.00;0.70;;;25.70;99.90;;;;;;5074267;28;20021;-47
2023/08/16 12:40:12;;;;;;;2.75;1.15;;;25.70;99.90;;;;;;5073998;28;20024;-51
2023/08/16 12:42:38;;;;;;;2.78;0.98;;;25.60;99.90;;;;;;5056440;28;20029;-55
2023/08/16 12:45:04;;;;;;;0.80;0.80;;;25.60;99.90;;;;;;5073847;28;20028;-50
2023/08/16 12:47:30;;;;;;;2.25;0.80;;;25.60;99.90;;;;;;5074036;28;20029;-50
2023/08/16 12:49:55;;;;;;;1.85;0.90;;;25.50;99.90;;;;;;5073620;28;20078;-53
2023/08/16 12:52:22;;;;;;;0.85;0.73;;;25.50;99.90;;;;;;5073687;28;20032;-52
2023/08/16 12:54:49;;;;;;;0.93;0.80;;;25.80;99.90;;;;;;5073502;28;20040;-52
2023/08/16 12:57:18;;;;;;;0.88;0.70;;;25.80;99.90;;;;;;5073462;28;20029;-52
2023/08/16 12:59:50;;;;;;;4.28;0.90;;;25.80;99.90;;;;;;5073531;28;20086;-52
2023/08/16 13:02:17;;;;;;;3.58;0.90;;;25.90;99.90;;;;;;5072578;28;20048;-52
2023/08/16 13:04:43;;;;;;;2.65;0.70;;;26.00;99.90;;;;;;5073708;28;20074;-52
2023/08/16 13:07:08;;;;;;;1.50;1.10;;;26.00;99.90;;;;;;5073609;28;20477;-52
2023/08/16 13:09:34;;;;;;;2.53;0.80;;;26.10;99.90;;;;;;5073654;28;20020;-47
2023/08/16 13:12:00;;;;;;;1.17;0.80;;;25.90;99.90;;;;;;5073167;28;20090;-52
2023/08/16 13:14:27;;;;;;;1.17;0.90;;;25.80;99.90;;;;;;5073293;28;20036;-50
2023/08/16 13:16:53;;;;;;;3.85;0.80;;;25.70;99.90;;;;;;5073423;28;20035;-52
2023/08/16 13:19:18;;;;;;;1.58;0.80;;;25.60;99.90;;;;;;5055344;28;20489;-55
2023/08/16 13:21:44;;;;;;;0.88;0.80;;;25.50;99.90;;;;;;5073161;28;20028;-52
2023/08/16 13:24:13;;;;;;;1.95;0.80;;;25.10;99.90;;;;;;5073021;28;20024;-50
2023/08/16 13:26:43;;;;;;;2.03;0.68;;;25.10;99.90;;;;;;5073394;28;20385;-51
2023/08/16 13:29:10;;;;;;;1.00;0.70;;;25.20;99.90;;;;;;5073576;28;20059;-49
2023/08/16 13:31:36;;;;;;;2.00;0.68;;;25.40;99.90;;;;;;5073109;28;20100;-41
2023/08/16 13:34:02;;;;;;;5.78;0.70;;;25.40;99.90;;;;;;5072987;28;20106;-40
2023/08/16 13:36:28;;;;;;;1.63;1.52;;;25.40;99.90;;;;;;5073196;28;20114;-42
2023/08/16 13:38:54;;;;;;;0.90;0.90;;;25.40;99.90;;;;;;5072959;28;20045;-43
2023/08/16 13:41:20;;;;;;;0.80;0.80;;;25.40;99.90;;;;;;5072950;28;20020;-41
2023/08/16 13:43:45;;;;;;;1.30;0.80;;;25.50;99.90;;;;;;5073093;28;20495;-41
2023/08/16 13:46:11;;;;;;;3.88;1.13;;;25.60;99.90;;;;;;5073149;28;20039;-43
2023/08/16 13:48:37;;;;;;;3.17;0.90;;;25.70;99.90;;;;;;5073119;28;20037;-40
2023/08/16 13:51:02;;;;;;;1.42;1.17;;;25.80;99.90;;;;;;5054825;28;20037;-40
2023/08/16 13:53:28;;;;;;;2.33;1.10;;;25.60;99.90;;;;;;5073056;28;20024;-41
2023/08/16 13:55:56;;;;;;;2.55;1.00;;;25.40;99.90;;;;;;5072429;28;20048;-54
2023/08/16 13:58:22;;;;;;;0.93;0.90;;;25.60;99.90;;;;;;5072718;28;20021;-48
2023/08/16 14:00:49;;;;;;;2.05;1.17;;;25.80;99.90;;;;;;5072755;28;20028;-50
2023/08/16 14:03:15;;;;;;;1.17;0.63;;;26.00;99.90;;;;;;5072789;28;20024;-53
2023/08/16 14:05:40;;;;;;;3.53;0.90;;;26.20;99.90;;;;;;5072671;28;20036;-50
2023/08/16 14:08:06;;;;;;;1.25;0.80;;;26.30;99.90;;;;;;5072850;28;20538;-50
2023/08/16 14:10:32;;;;;;;3.97;0.80;;;26.10;99.90;;;;;;5072689;28;20059;-51
2023/08/16 14:12:59;;;;;;;4.70;1.10;;;25.60;99.90;;;;;;5072654;28;20032;-52
2023/08/16 14:15:25;;;;;;;;;;;25.40;99.90;;;;;;5076743;28;20071;-53
2023/08/16 14:17:50;;;;;;;2.05;1.08;;;25.30;99.90;;;;;;5076744;28;19908;-52
2023/08/16 14:20:16;;;;;;;0.82;0.82;;;25.20;99.90;;;;;;5076961;28;20016;-58
2023/08/16 14:22:42;;;;;;;3.50;0.82;;;25.20;99.90;;;;;;5076602;28;20040;-49
2023/08/16 14:25:08;;;;;;;0.80;0.80;;;25.10;99.90;;;;;;5076489;28;20034;-50
2023/08/16 14:27:34;;;;;;;1.75;0.80;;;25.10;99.90;;;;;;5076723;28;20024;-51
2023/08/16 14:29:59;;;;;;;0.93;0.88;;;25.10;99.90;;;;;;5076706;28;20029;-49
2023/08/16 14:32:25;;;;;;;5.68;0.95;;;25.10;99.90;;;;;;5076378;28;20016;-53
2023/08/16 14:34:51;;;;;;;2.15;0.73;;;25.20;99.90;;;;;;5076261;28;20154;-51
2023/08/16 14:37:16;;;;;;;7.68;1.27;;;25.40;99.90;;;;;;5076209;28;20029;-54
2023/08/16 14:39:42;;;;;;;3.65;0.95;;;25.40;99.90;;;;;;5076326;28;20032;-55
2023/08/16 14:42:08;;;;;;;1.65;0.90;;;25.20;99.90;;;;;;5076071;28;20107;-53
2023/08/16 14:44:33;;;;;;;2.25;0.90;;;25.30;99.90;;;;;;5076144;28;20024;-52
2023/08/16 14:46:59;;;;;;;2.28;1.05;;;25.40;99.90;;;;;;5076154;28;20055;-52
2023/08/16 14:49:24;;;;;;;0.95;0.60;;;25.40;99.90;;;;;;5076084;28;20029;-51
2023/08/16 14:51:50;;;;;;;1.95;0.80;;;25.40;99.90;;;;;;5075989;28;20392;-48
2023/08/16 14:54:16;;;;;;;6.07;0.90;;;25.40;99.90;;;;;;5075964;28;20512;-39
2023/08/16 14:56:41;;;;;;;3.15;1.10;;;25.40;99.90;;;;;;5075652;28;20123;-40
2023/08/16 14:59:07;;;;;;;5.57;0.85;;;25.40;99.90;;;;;;5075930;28;20036;-40
2023/08/16 15:01:33;;;;;;;3.15;0.68;;;25.50;99.90;;;;;;5075846;28;20503;-41
2023/08/16 15:03:58;;;;;;;2.58;1.05;;;25.50;99.90;;;;;;5075839;28;20028;-43
2023/08/16 15:06:24;;;;;;;2.22;0.70;;;25.40;99.90;;;;;;5075710;28;20032;-40
2023/08/16 15:09:04;;;;;;;1.13;0.82;;;25.30;99.90;;;;;;5075587;28;20076;-51
2023/08/16 15:11:30;;;;;;;0.68;0.68;;;25.20;99.90;;;;;;5075676;28;20508;-39
2023/08/16 15:13:56;;;;;;;1.60;0.82;;;25.10;99.90;;;;;;5075515;28;20029;-43
2023/08/16 15:16:21;;;;;;;1.20;0.90;;;25.00;99.90;;;;;;5075441;28;20035;-39
2023/08/16 15:18:47;;;;;;;2.05;0.68;;;24.80;99.90;;;;;;5075550;28;20029;-42
2023/08/16 15:21:13;;;;;;;0.60;0.60;;;24.70;99.90;;;;;;5075473;28;20035;-41
2023/08/16 15:23:39;;;;;;;4.63;0.90;;;24.80;99.90;;;;;;5075315;28;20033;-46
2023/08/16 15:26:06;;;;;;;0.90;0.90;;;24.80;99.90;;;;;;5074662;28;20028;-42
2023/08/16 15:28:33;;;;;;;2.63;0.70;;;24.60;99.90;;;;;;5075545;28;20770;-39
2023/08/16 15:30:59;;;;;;;2.08;1.00;;;24.40;99.90;;;;;;5075343;28;20469;-43
2023/08/16 15:33:24;;;;;;;1.00;0.65;;;24.40;99.90;;;;;;5075281;28;20024;-42
2023/08/16 15:35:50;;;;;;;0.93;0.90;;;24.50;99.90;;;;;;5075172;28;20534;-40
2023/08/16 15:38:43;;;;;;;2.13;1.40;;;24.60;99.90;;;;;;5057141;28;20058;-40
2023/08/16 15:41:10;;;;;;;0.70;0.70;;;24.50;99.90;;;;;;5075297;28;20013;-41
2023/08/16 15:43:37;;;;;;;5.38;0.90;;;24.60;99.90;;;;;;5075064;28;20381;-43
2023/08/16 15:46:03;;;;;;;2.08;0.68;;;24.50;99.90;;;;;;5075093;28;20099;-41
2023/08/16 15:48:29;;;;;;;1.55;0.55;;;24.50;99.90;;;;;;5074967;28;20032;-47
2023/08/16 15:50:55;;;;;;;0.60;0.60;;;24.40;99.90;;;;;;5074921;28;20024;-40
2023/08/16 15:53:21;;;;;;;6.15;1.63;;;24.20;99.90;;;;;;5075141;28;20488;-44
2023/08/16 15:55:54;;;;;;;2.10;1.05;;;24.10;99.90;;;;;;5074642;28;20523;-40
2023/08/16 15:58:22;;;;;;;2.28;0.95;;;24.00;99.90;;;;;;5074759;28;20025;-41
2023/08/16 16:00:59;;;;;;;4.53;1.48;;;24.00;99.90;;;;;;5074839;28;20048;-42
2023/08/16 16:03:25;;;;;;;0.95;0.90;;;24.00;99.90;;;;;;5074740;28;20021;-41
2023/08/16 16:05:51;;;;;;;2.22;0.60;;;24.00;99.90;;;;;;5074719;28;20055;-40
2023/08/16 16:08:17;;;;;;;2.25;0.60;;;24.00;99.90;;;;;;5074691;28;20056;-46
2023/08/16 16:10:43;;;;;;;1.67;0.77;;;24.00;99.90;;;;;;5074856;28;20016;-41
2023/08/16 16:13:09;;;;;;;1.80;1.13;;;24.20;99.90;;;;;;5074445;28;20502;-40
2023/08/16 16:15:34;;;;;;;0.60;0.60;;;24.20;99.90;;;;;;5074391;28;20481;-48
2023/08/16 16:18:00;;;;;;;0.50;0.35;;;24.30;99.90;;;;;;5074296;28;20017;-39
2023/08/16 16:20:26;;;;;;;3.05;0.80;;;24.30;99.90;;;;;;5074303;28;20035;-41
2023/08/16 16:22:53;;;;;;;1.75;0.75;;;24.30;99.90;;;;;;5074274;28;20028;-42
2023/08/16 16:25:20;;;;;;;4.85;0.98;;;24.30;99.90;;;;;;5074254;28;20024;-42
2023/08/16 16:27:46;;;;;;;3.00;1.42;;;24.30;99.90;;;;;;5074190;28;20021;-41
2023/08/16 16:30:12;;;;;;;4.20;0.73;;;24.20;99.90;;;;;;5074188;28;20036;-40
2023/08/16 16:32:37;;;;;;;0.73;0.73;;;24.20;99.90;;;;;;5074087;28;20024;-40
2023/08/16 16:35:03;;;;;;;3.53;0.80;;;24.20;99.90;;;;;;5074006;28;20027;-41
2023/08/16 16:37:29;;;;;;;1.00;0.80;;;24.20;99.90;;;;;;5073845;28;20032;-44
2023/08/16 16:39:54;;;;;;;0.80;0.80;;;24.20;99.90;;;;;;5073994;28;20388;-40
2023/08/16 16:42:20;;;;;;;1.55;0.80;;;24.30;99.90;;;;;;5073883;28;20020;-43
2023/08/16 16:44:46;;;;;;;2.25;1.20;;;24.30;99.90;;;;;;5055999;28;20511;-40
2023/08/16 16:47:11;;;;;;;2.88;0.98;;;24.20;99.90;;;;;;5073748;28;20397;-39
2023/08/16 16:49:37;;;;;;;1.27;1.17;;;24.10;99.90;;;;;;5073626;28;20028;-42
2023/08/16 16:52:03;;;;;;;0.95;0.90;;;24.00;99.90;;;;;;5073855;28;20020;-44
2023/08/16 16:54:28;;;;;;;0.77;0.70;;;23.90;99.90;;;;;;5073517;28;20032;-40
2023/08/16 16:56:54;;;;;;;2.20;0.80;;;23.90;99.90;;;;;;5073592;28;20074;-43
2023/08/16 16:59:20;;;;;;;2.30;0.70;;;23.90;99.90;;;;;;5073844;28;20016;-41
2023/08/16 17:01:45;;;;;;;1.13;0.73;;;23.70;99.90;;;;;;5073536;28;20025;-41
2023/08/16 17:04:11;;;;;;;1.40;0.70;;;23.60;99.90;;;;;;5073417;28;20020;-42
2023/08/16 17:06:37;;;;;;;2.17;1.35;;;23.40;99.90;;;;;;5073532;28;20032;-41
2023/08/16 17:09:03;;;;;;;2.05;0.85;;;23.30;99.90;;;;;;5073464;28;20439;-40
2023/08/16 17:11:29;;;;;;;1.35;1.10;;;23.30;99.90;;;;;;5073328;28;20031;-46
2023/08/16 17:13:54;;;;;;;2.28;0.70;;;23.30;99.90;;;;;;5073176;28;20036;-40
2023/08/16 17:16:21;;;;;;;0.80;0.80;;;23.20;99.90;;;;;;5073290;28;20488;-46
2023/08/16 17:18:46;;;;;;;1.23;1.00;;;23.20;99.90;;;;;;5073207;28;20028;-44
2023/08/16 17:21:14;;;;;;;1.73;0.88;;;23.20;99.90;;;;;;5073274;28;20020;-44
2023/08/16 17:23:46;;;;;;;1.05;1.05;;;23.20;99.90;;;;;;5073116;28;20017;-40
2023/08/16 17:26:12;;;;;;;1.58;1.27;;;23.20;99.90;;;;;;5073115;28;20028;-40
2023/08/16 17:28:39;;;;;;;3.95;1.33;;;23.20;99.90;;;;;;5072953;28;20016;-41
2023/08/16 17:31:10;;;;;;;1.43;0.90;;;23.10;99.90;;;;;;5073099;28;20040;-40
2023/08/16 17:33:38;;;;;;;4.22;1.65;;;23.10;99.90;;;;;;5073022;28;20024;-40
2023/08/16 17:36:16;;;;;;;1.73;1.25;;;23.10;99.90;;;;;;5072961;28;20025;-41
2023/08/16 17:38:46;;;;;;;1.42;1.10;;;23.00;99.90;;;;;;5073310;28;20031;-41
2023/08/16 17:41:20;;;;;;;6.00;0.98;;;23.00;99.90;;;;;;5072989;28;20044;-43
2023/08/16 17:43:49;;;;;;;1.85;1.00;;;22.90;99.90;;;;;;5072962;28;20037;-39
2023/08/16 17:46:15;;;;;;;1.08;0.95;;;22.80;99.90;;;;;;5072884;28;20048;-40
2023/08/16 17:48:42;;;;;;;0.80;0.73;;;22.70;99.90;;;;;;5072411;28;20028;-44
2023/08/16 17:51:08;;;;;;;1.17;1.10;;;22.70;99.90;;;;;;5072787;28;20027;-41
2023/08/16 17:53:33;;;;;;;1.50;1.23;;;22.60;99.90;;;;;;5072828;28;20029;-41
2023/08/16 17:55:59;;;;;;;2.13;1.00;;;22.60;99.90;;;;;;5072607;28;20531;-41
2023/08/16 17:58:27;;;;;;;1.48;1.35;;;22.50;99.90;;;;;;5072722;28;20020;-41
2023/08/16 18:01:05;;;;;;;2.47;1.15;;;22.60;99.90;;;;;;5072998;28;20024;-42
2023/08/16 18:03:31;;;;;;;2.05;0.90;;;22.60;99.90;;;;;;5073031;28;20057;-42
2023/08/16 18:05:57;;;;;;;2.03;1.05;;;22.70;99.90;;;;;;5054723;28;20036;-42
2023/08/16 18:08:22;;;;;;;0.90;0.90;;;22.70;99.90;;;;;;5072711;28;20481;-40
2023/08/16 18:10:48;;;;;;;5.28;1.10;;;22.70;99.90;;;;;;5072693;28;20025;-40
2023/08/16 18:13:14;;;;;;;1.98;0.90;;;22.70;99.90;;;;;;5072510;28;20481;-43
2023/08/16 18:15:40;;;;;;;0.75;0.75;;;22.50;99.90;;;;;;5072555;28;20064;-40
2023/08/16 18:18:05;;;;;;;2.22;0.85;;;22.50;99.90;;;;;;5072595;28;20067;-40
2023/08/16 18:20:32;;;;;;;3.08;0.82;;;22.50;99.90;;;;;;5072580;28;20543;-40
2023/08/16 18:22:59;;;;;;;3.80;0.90;;;22.50;99.90;;;;;;5054875;28;20070;-42
2023/08/16 18:25:25;;;;;;;2.83;0.77;;;22.50;99.90;;;;;;5072426;28;20035;-40
2023/08/16 18:27:51;;;;;;;1.95;0.95;;;22.50;99.90;;;;;;5072504;28;20028;-41
2023/08/16 18:30:17;;;;;;;0.80;0.80;;;22.50;99.90;;;;;;5072531;28;20031;-41
2023/08/16 18:32:42;;;;;;;2.03;1.00;;;22.50;99.90;;;;;;5072400;28;20024;-44
2023/08/16 18:35:08;;;;;;;3.92;0.82;;;22.50;99.90;;;;;;5072455;28;20415;-48
2023/08/16 18:37:34;;;;;;;1.80;0.85;;;22.40;99.90;;;;;;5072312;28;20024;-43
2023/08/16 18:39:59;;;;;;;4.10;0.90;;;22.40;99.90;;;;;;5072409;28;20060;-40
2023/08/16 18:42:25;;;;;;;5.45;1.30;;;22.40;99.90;;;;;;5072258;28;20031;-41
2023/08/16 18:44:51;;;;;;;0.80;0.80;;;22.40;99.90;;;;;;5072238;28;20112;-41
2023/08/16 18:47:16;;;;;;;2.13;1.08;;;22.40;99.90;;;;;;5072534;28;20138;-40
2023/08/16 18:49:42;;;;;;;1.20;1.10;;;22.40;99.90;;;;;;5072289;28;20035;-39
2023/08/16 18:52:08;;;;;;;1.98;1.15;;;22.30;99.90;;;;;;5072219;28;20040;-42
2023/08/16 18:54:33;;;;;;;3.17;1.20;;;22.30;99.90;;;;;;5071975;28;20403;-40
2023/08/16 18:56:59;;;;;;;5.43;1.10;;;22.30;99.90;;;;;;5072259;28;20032;-40